GUM weather

Antonio B. Won Pat International Airport
Hagåtña, Guam International Airport, Guam

Public forecast

Using degrees Celsius for public forecast. Weather courtesy of forecast.io.

Current aviation weather report (METAR) for Antonio B. Won Pat International Airport

Retrieved 2019/10/18 23:54 UTC (47 minutes ago):

PGUM 182354Z 10009KT 10SM CLR 29/24 A2992 RMK AO2 SLP125 60010 T02890244 10289 20233 51016

Aviation forecast (TAF) for Antonio B. Won Pat International Airport

Retrieved 2019-10-19 02:52 UTC (0 seconds ago):

TAF COR PGUM 190152Z 1902/2006 10015KT P6SM VCSH FEW018 SCT050 BKN130 TEMPO 1902/1905 09010G20KT 3SM SHRA BKN018